createdAt,value
2022-08-31T00:03:04.894Z,23.90
2022-08-31T00:08:08.620Z,23.90
2022-08-31T00:13:13.034Z,23.90
2022-08-31T00:18:19.108Z,23.90
2022-08-31T00:23:22.622Z,23.80
2022-08-31T00:28:26.185Z,23.90
2022-08-31T00:33:29.806Z,23.80
2022-08-31T00:38:35.655Z,23.80
2022-08-31T00:44:03.351Z,23.80
2022-08-31T00:49:13.936Z,23.80
2022-08-31T00:54:20.736Z,23.80
2022-08-31T00:59:26.196Z,23.80
2022-08-31T01:04:30.738Z,23.80
2022-08-31T01:09:37.901Z,23.80
2022-08-31T01:14:43.204Z,23.80
2022-08-31T01:19:54.502Z,23.80
2022-08-31T01:24:59.077Z,23.80
2022-08-31T01:30:06.532Z,23.80
2022-08-31T01:35:11.435Z,23.80
2022-08-31T01:40:15.474Z,23.80
2022-08-31T01:45:19.780Z,23.80
2022-08-31T01:50:23.514Z,23.80
2022-08-31T01:55:27.744Z,23.70
2022-08-31T02:00:32.317Z,23.80
2022-08-31T02:05:37.146Z,23.80
2022-08-31T02:10:40.838Z,23.70
2022-08-31T02:15:51.686Z,23.70
2022-08-31T02:20:55.657Z,23.80
2022-08-31T02:25:59.414Z,23.70
2022-08-31T02:31:04.332Z,23.70
2022-08-31T02:36:09.214Z,23.70
2022-08-31T02:41:14.474Z,23.70
2022-08-31T02:46:19.017Z,23.70
2022-08-31T02:51:33.999Z,23.60
2022-08-31T02:56:39.568Z,23.70
2022-08-31T03:01:43.419Z,23.60
2022-08-31T03:06:57.696Z,23.60
2022-08-31T03:12:08.448Z,23.60
2022-08-31T03:17:12.378Z,23.60
2022-08-31T03:22:16.516Z,23.60
2022-08-31T03:27:21.364Z,23.60
2022-08-31T03:32:27.736Z,23.60
2022-08-31T03:37:31.486Z,23.60
2022-08-31T03:42:36.430Z,23.60
2022-08-31T03:47:44.831Z,23.60
2022-08-31T03:52:49.304Z,23.60
2022-08-31T03:57:55.895Z,23.60
2022-08-31T04:03:00.832Z,23.50
2022-08-31T04:08:07.439Z,23.50
2022-08-31T04:13:30.457Z,23.50
2022-08-31T04:19:07.884Z,23.50
2022-08-31T04:24:15.411Z,23.50
2022-08-31T04:29:19.143Z,23.50
2022-08-31T04:34:22.867Z,23.50
2022-08-31T04:39:26.893Z,23.50
2022-08-31T04:44:35.327Z,23.50
2022-08-31T04:49:39.940Z,23.50
2022-08-31T04:54:43.494Z,23.50
2022-08-31T04:59:47.223Z,23.50
2022-08-31T05:05:10.902Z,23.40
2022-08-31T05:10:19.239Z,23.40
2022-08-31T05:15:22.854Z,23.40
2022-08-31T05:20:26.886Z,23.50
2022-08-31T05:25:31.226Z,23.50
2022-08-31T05:30:34.951Z,23.50
2022-08-31T05:35:45.328Z,23.40
2022-08-31T05:40:52.943Z,23.40
2022-08-31T05:45:57.233Z,23.40
2022-08-31T05:51:03.238Z,23.40
2022-08-31T05:56:11.883Z,23.40
2022-08-31T06:01:24.092Z,23.40
2022-08-31T06:07:05.201Z,23.40
2022-08-31T06:12:20.761Z,23.40
2022-08-31T06:17:24.690Z,23.50
2022-08-31T06:22:35.798Z,23.50
2022-08-31T06:27:41.292Z,23.50
2022-08-31T06:33:02.605Z,23.50
2022-08-31T06:38:22.806Z,23.50
2022-08-31T06:43:57.318Z,23.60
2022-08-31T06:49:23.367Z,23.60
2022-08-31T06:54:29.892Z,23.60
2022-08-31T06:59:55.713Z,23.60
2022-08-31T07:05:33.898Z,23.60
2022-08-31T07:10:47.037Z,23.60
2022-08-31T07:15:50.798Z,23.60
2022-08-31T07:20:55.238Z,23.60
2022-08-31T07:26:11.319Z,23.60
2022-08-31T07:31:16.538Z,23.60
2022-08-31T07:36:21.322Z,23.60
2022-08-31T07:42:01.991Z,23.60
2022-08-31T07:47:17.683Z,23.60
2022-08-31T07:52:26.227Z,23.60
2022-08-31T07:57:57.403Z,23.70
2022-08-31T08:03:07.711Z,23.80
2022-08-31T08:08:35.733Z,23.70
2022-08-31T08:14:17.319Z,23.80
2022-08-31T08:19:40.640Z,23.80
2022-08-31T08:24:47.590Z,23.80
2022-08-31T08:30:14.877Z,23.80
2022-08-31T08:35:20.116Z,23.80
2022-08-31T08:40:43.816Z,23.80
2022-08-31T08:45:56.024Z,23.80
2022-08-31T08:51:20.211Z,23.80
2022-08-31T08:56:34.448Z,23.80
2022-08-31T09:01:41.019Z,23.90
2022-08-31T09:07:05.253Z,23.80
2022-08-31T09:12:31.154Z,23.80
2022-08-31T09:17:51.952Z,23.80
2022-08-31T09:23:01.111Z,23.80
2022-08-31T09:28:15.534Z,23.80
2022-08-31T09:33:32.757Z,23.80
2022-08-31T09:38:40.674Z,23.80
2022-08-31T09:43:46.444Z,23.90
2022-08-31T09:48:56.521Z,23.90
2022-08-31T09:54:34.530Z,23.90
2022-08-31T09:59:44.345Z,23.90
2022-08-31T10:04:57.871Z,24.00
2022-08-31T10:10:30.163Z,24.10
2022-08-31T10:15:59.398Z,24.10
2022-08-31T10:21:08.568Z,24.10
2022-08-31T10:26:20.952Z,24.20
2022-08-31T10:31:31.533Z,24.20
2022-08-31T10:36:38.276Z,24.20
2022-08-31T10:41:49.067Z,24.20
2022-08-31T10:47:21.663Z,24.20
2022-08-31T10:53:02.754Z,24.20
2022-08-31T10:58:21.912Z,24.30
2022-08-31T11:03:51.203Z,24.30
2022-08-31T11:09:20.515Z,24.30
2022-08-31T11:14:49.411Z,24.20
2022-08-31T11:20:24.860Z,24.20
2022-08-31T11:25:53.452Z,24.20
2022-08-31T11:30:57.305Z,24.20
2022-08-31T11:36:10.724Z,24.20
2022-08-31T11:41:47.112Z,24.30
2022-08-31T11:47:31.654Z,24.30
2022-08-31T11:52:42.438Z,24.30
2022-08-31T11:58:03.460Z,24.30
2022-08-31T12:03:10.062Z,24.40
2022-08-31T12:08:18.585Z,24.40
2022-08-31T12:13:52.403Z,24.40
2022-08-31T12:19:03.599Z,24.40
2022-08-31T12:24:18.912Z,24.50
2022-08-31T12:29:39.334Z,24.50
2022-08-31T12:35:14.839Z,24.60
2022-08-31T12:40:22.726Z,24.50
2022-08-31T12:46:13.359Z,24.60
2022-08-31T12:51:23.182Z,24.60
2022-08-31T12:56:29.914Z,24.60
2022-08-31T13:01:47.032Z,24.60
2022-08-31T13:06:54.659Z,24.70
2022-08-31T13:12:04.651Z,24.70
2022-08-31T13:17:18.264Z,24.70
2022-08-31T13:22:48.918Z,24.70
2022-08-31T13:27:53.051Z,24.70
2022-08-31T13:32:57.494Z,24.80
2022-08-31T13:38:10.838Z,24.70
2022-08-31T13:43:27.151Z,24.80
2022-08-31T13:48:38.400Z,24.80
2022-08-31T13:53:44.120Z,24.80
2022-08-31T13:58:48.593Z,24.70
2022-08-31T14:04:00.705Z,24.70
2022-08-31T14:09:17.941Z,24.70
2022-08-31T14:14:30.198Z,24.80
2022-08-31T14:19:39.752Z,24.90
2022-08-31T14:24:49.475Z,24.90
2022-08-31T14:29:55.738Z,24.90
2022-08-31T14:34:59.467Z,24.90
2022-08-31T14:40:08.759Z,24.90
2022-08-31T14:45:21.546Z,24.90
2022-08-31T14:50:28.346Z,24.80
2022-08-31T14:55:32.066Z,24.90
2022-08-31T15:00:53.503Z,24.90
2022-08-31T15:06:00.762Z,24.90
2022-08-31T15:11:15.692Z,24.90
2022-08-31T15:16:19.695Z,24.90
2022-08-31T15:21:27.431Z,24.90
2022-08-31T15:26:32.627Z,24.90
2022-08-31T15:31:37.395Z,24.90
2022-08-31T15:36:41.064Z,24.90
2022-08-31T15:41:45.097Z,24.90
2022-08-31T15:47:07.756Z,24.90
2022-08-31T15:52:12.097Z,24.90
2022-08-31T15:57:16.331Z,24.90
2022-08-31T16:02:20.962Z,24.80
2022-08-31T16:07:27.158Z,24.80
2022-08-31T16:12:30.782Z,24.80
2022-08-31T16:17:34.383Z,24.80
2022-08-31T16:22:38.746Z,24.80
2022-08-31T16:27:43.627Z,24.80
2022-08-31T16:32:52.136Z,24.80
2022-08-31T16:37:58.013Z,24.70
2022-08-31T16:43:02.152Z,24.70
2022-08-31T16:48:24.693Z,24.70
2022-08-31T16:53:31.911Z,24.70
2022-08-31T16:58:51.000Z,24.70
2022-08-31T17:03:58.234Z,24.70
2022-08-31T17:09:08.321Z,24.70
2022-08-31T17:14:22.925Z,24.70
2022-08-31T17:19:27.947Z,24.70
2022-08-31T17:24:39.002Z,24.70
2022-08-31T17:29:44.772Z,24.60
2022-08-31T17:34:56.541Z,24.60
2022-08-31T17:40:08.292Z,24.60
2022-08-31T17:45:13.742Z,24.60
2022-08-31T17:50:20.418Z,24.60
2022-08-31T17:55:24.041Z,24.60
2022-08-31T18:00:28.740Z,24.60
2022-08-31T18:05:34.050Z,24.50
2022-08-31T18:10:39.259Z,24.50
2022-08-31T18:15:44.081Z,24.50
2022-08-31T18:20:47.888Z,24.50
2022-08-31T18:25:52.846Z,24.50
2022-08-31T18:30:58.413Z,24.50
2022-08-31T18:36:03.594Z,24.50
2022-08-31T18:41:27.559Z,24.50
2022-08-31T18:46:31.868Z,24.50
2022-08-31T18:51:38.890Z,24.40
2022-08-31T18:56:45.550Z,24.40
2022-08-31T19:01:49.788Z,24.40
2022-08-31T19:06:55.089Z,24.40
2022-08-31T19:12:04.574Z,24.40
2022-08-31T19:17:12.064Z,24.40
2022-08-31T19:22:24.485Z,24.30
2022-08-31T19:27:31.799Z,24.30
2022-08-31T19:32:42.163Z,24.30
2022-08-31T19:37:53.570Z,24.30
2022-08-31T19:43:42.404Z,24.30
2022-08-31T19:48:30.077Z,24.30
2022-08-31T19:53:34.210Z,24.30
2022-08-31T19:58:41.899Z,24.30
2022-08-31T20:03:48.633Z,24.20
2022-08-31T20:08:54.221Z,24.30
2022-08-31T20:19:40.495Z,24.30
2022-08-31T20:24:45.371Z,24.20
2022-08-31T20:29:49.927Z,24.20
2022-08-31T20:35:02.359Z,24.20
2022-08-31T20:40:11.442Z,24.20
2022-08-31T20:45:26.767Z,24.10
2022-08-31T20:50:50.466Z,24.10
2022-08-31T20:55:56.541Z,24.10
2022-08-31T21:01:07.162Z,24.10
2022-08-31T21:06:13.314Z,24.10
2022-08-31T21:11:22.379Z,24.00
2022-08-31T21:16:26.765Z,24.00
2022-08-31T21:21:31.850Z,24.00
2022-08-31T21:26:40.225Z,24.00
2022-08-31T21:31:56.867Z,24.00
2022-08-31T21:37:09.529Z,24.00
2022-08-31T21:42:14.383Z,24.00
2022-08-31T21:47:20.154Z,23.90
2022-08-31T21:52:25.753Z,23.90
2022-08-31T21:57:32.475Z,23.90
2022-08-31T22:02:36.584Z,23.90
2022-08-31T22:07:40.581Z,23.90
2022-08-31T22:12:45.233Z,23.90
2022-08-31T22:18:17.953Z,23.90
2022-08-31T22:23:22.356Z,23.80
2022-08-31T22:28:28.406Z,23.90
2022-08-31T22:33:32.072Z,23.90
2022-08-31T22:38:35.988Z,23.80
2022-08-31T22:43:40.635Z,23.80
2022-08-31T22:48:44.257Z,23.80
2022-08-31T22:53:50.034Z,23.80
2022-08-31T22:58:56.418Z,23.80
2022-08-31T23:04:02.396Z,23.80
2022-08-31T23:09:10.232Z,23.80
2022-08-31T23:14:13.939Z,23.80
2022-08-31T23:19:21.040Z,23.80
2022-08-31T23:24:34.897Z,23.80
2022-08-31T23:29:45.992Z,23.70
2022-08-31T23:34:51.482Z,23.80
2022-08-31T23:39:56.210Z,23.70
2022-08-31T23:45:00.441Z,23.70
2022-08-31T23:50:08.385Z,23.70
2022-08-31T23:55:12.299Z,23.70
